San Francisco, California
Traffic Map
Current Weather Conditions
San Francisco, California
Clear
Clear
14°
Feels Like: 14°
Wind Chill: 14° Ceiling: Unl
Heat Index: 14° Visibility: 10mi
Dew Point: 11° Wind: 5mph
Humidity: 78% Direction: 120° (ESE)
Pressure: 30.35in Gusts: 0mph
Raw Report DataKSFO 260456Z 12004KT 10SM CLR 14/11 A3035 RMK AO2 SLP278 T01440106
Traffic Incident Summary
Active as of:
Severity:
Category:
InformationThere was an issue retrieving the traffic information for this location. Please try a different location or try again shortly.
Advertisements
Track Severe Weather on mobile